sensor_id;sensor_type;location;lat;lon;timestamp;pressure;altitude;pressure_sealevel;temperature;humidity
43115;BME280;28727;50.068;14.452;2023-02-15T00:00:04;100939.47;;;4.76;67.79
43115;BME280;28727;50.068;14.452;2023-02-15T00:02:40;100935.91;;;4.77;67.99
43115;BME280;28727;50.068;14.452;2023-02-15T00:05:11;100934.03;;;4.79;67.44
43115;BME280;28727;50.068;14.452;2023-02-15T00:07:46;100933.19;;;4.79;67.72
43115;BME280;28727;50.068;14.452;2023-02-15T00:10:18;100930.31;;;4.69;67.58
43115;BME280;28727;50.068;14.452;2023-02-15T00:12:49;100940.00;;;4.67;67.69
43115;BME280;28727;50.068;14.452;2023-02-15T00:15:23;100938.31;;;4.66;67.89
43115;BME280;28727;50.068;14.452;2023-02-15T00:17:57;100935.16;;;4.61;67.91
43115;BME280;28727;50.068;14.452;2023-02-15T00:20:28;100932.16;;;4.53;68.21
43115;BME280;28727;50.068;14.452;2023-02-15T00:23:00;100927.88;;;4.52;68.25
43115;BME280;28727;50.068;14.452;2023-02-15T00:25:31;100930.56;;;4.50;68.11
43115;BME280;28727;50.068;14.452;2023-02-15T00:28:03;100937.00;;;4.45;68.25
43115;BME280;28727;50.068;14.452;2023-02-15T00:30:38;100928.13;;;4.47;68.56
43115;BME280;28727;50.068;14.452;2023-02-15T00:33:10;100927.88;;;4.52;68.49
43115;BME280;28727;50.068;14.452;2023-02-15T00:35:41;100931.56;;;4.48;68.45
43115;BME280;28727;50.068;14.452;2023-02-15T00:38:26;100926.53;;;4.45;68.35
43115;BME280;28727;50.068;14.452;2023-02-15T00:41:05;100923.34;;;4.40;68.63
43115;BME280;28727;50.068;14.452;2023-02-15T00:43:40;100927.09;;;4.36;68.86
43115;BME280;28727;50.068;14.452;2023-02-15T00:46:11;100926.59;;;4.29;69.21
43115;BME280;28727;50.068;14.452;2023-02-15T00:48:43;100929.13;;;4.31;68.58
43115;BME280;28727;50.068;14.452;2023-02-15T00:51:15;100925.75;;;4.29;69.09
43115;BME280;28727;50.068;14.452;2023-02-15T00:53:47;100910.81;;;4.31;69.04
43115;BME280;28727;50.068;14.452;2023-02-15T00:56:23;100917.81;;;4.30;68.90
43115;BME280;28727;50.068;14.452;2023-02-15T00:58:55;100910.81;;;4.31;68.40
43115;BME280;28727;50.068;14.452;2023-02-15T01:01:27;100914.47;;;4.28;68.57
43115;BME280;28727;50.068;14.452;2023-02-15T01:03:59;100910.06;;;4.29;68.77
43115;BME280;28727;50.068;14.452;2023-02-15T01:06:33;100924.16;;;4.26;68.38
43115;BME280;28727;50.068;14.452;2023-02-15T01:09:05;100914.31;;;4.16;68.80
43115;BME280;28727;50.068;14.452;2023-02-15T01:11:40;100913.06;;;4.07;69.58
43115;BME280;28727;50.068;14.452;2023-02-15T01:14:14;100907.19;;;4.03;69.87
43115;BME280;28727;50.068;14.452;2023-02-15T01:16:46;100908.13;;;4.02;70.01
43115;BME280;28727;50.068;14.452;2023-02-15T01:19:17;100908.03;;;4.04;69.83
43115;BME280;28727;50.068;14.452;2023-02-15T01:21:51;100901.13;;;4.03;69.25
43115;BME280;28727;50.068;14.452;2023-02-15T01:24:32;100902.97;;;4.01;69.77
43115;BME280;28727;50.068;14.452;2023-02-15T01:27:06;100898.03;;;3.96;70.31
43115;BME280;28727;50.068;14.452;2023-02-15T01:29:46;100902.41;;;3.96;70.07
43115;BME280;28727;50.068;14.452;2023-02-15T01:32:19;100896.44;;;3.94;69.93
43115;BME280;28727;50.068;14.452;2023-02-15T01:34:51;100894.69;;;3.94;69.89
43115;BME280;28727;50.068;14.452;2023-02-15T01:37:25;100886.63;;;3.97;69.73
43115;BME280;28727;50.068;14.452;2023-02-15T01:39:59;100885.72;;;3.98;69.92
43115;BME280;28727;50.068;14.452;2023-02-15T01:42:31;100882.59;;;3.92;69.74
43115;BME280;28727;50.068;14.452;2023-02-15T01:45:04;100878.38;;;3.89;69.92
43115;BME280;28727;50.068;14.452;2023-02-15T01:48:28;100883.63;;;3.89;70.34
43115;BME280;28727;50.068;14.452;2023-02-15T01:50:41;100875.38;;;3.81;70.10
43115;BME280;28727;50.068;14.452;2023-02-15T01:56:14;100871.53;;;3.72;71.27
43115;BME280;28727;50.068;14.452;2023-02-15T01:58:49;100867.72;;;3.78;71.13
43115;BME280;28727;50.068;14.452;2023-02-15T02:01:22;100864.94;;;3.81;71.04
43115;BME280;28727;50.068;14.452;2023-02-15T02:06:26;100851.59;;;3.86;70.51
43115;BME280;28727;50.068;14.452;2023-02-15T02:08:57;100856.06;;;3.84;70.62
43115;BME280;28727;50.068;14.452;2023-02-15T02:11:34;100851.38;;;3.75;70.88
43115;BME280;28727;50.068;14.452;2023-02-15T02:14:06;100852.38;;;3.72;70.54
43115;BME280;28727;50.068;14.452;2023-02-15T02:22:07;100852.00;;;3.64;71.08
43115;BME280;28727;50.068;14.452;2023-02-15T02:25:02;100850.22;;;3.64;71.08
43115;BME280;28727;50.068;14.452;2023-02-15T02:27:47;100847.03;;;3.59;70.83
43115;BME280;28727;50.068;14.452;2023-02-15T02:30:34;100842.06;;;3.55;71.16
43115;BME280;28727;50.068;14.452;2023-02-15T02:43:29;100836.56;;;3.59;71.04
43115;BME280;28727;50.068;14.452;2023-02-15T02:46:17;100836.94;;;3.53;71.02
43115;BME280;28727;50.068;14.452;2023-02-15T02:48:52;100839.72;;;3.50;71.11
43115;BME280;28727;50.068;14.452;2023-02-15T02:51:28;100835.34;;;3.51;71.71
43115;BME280;28727;50.068;14.452;2023-02-15T02:54:03;100838.59;;;3.54;71.53
43115;BME280;28727;50.068;14.452;2023-02-15T02:56:40;100846.63;;;3.51;71.78
43115;BME280;28727;50.068;14.452;2023-02-15T02:59:27;100843.19;;;3.51;70.86
43115;BME280;28727;50.068;14.452;2023-02-15T03:02:19;100840.06;;;3.44;71.55
43115;BME280;28727;50.068;14.452;2023-02-15T03:04:55;100846.13;;;3.45;71.66
43115;BME280;28727;50.068;14.452;2023-02-15T03:07:37;100839.50;;;3.39;71.70
43115;BME280;28727;50.068;14.452;2023-02-15T03:10:18;100832.84;;;3.34;72.21
43115;BME280;28727;50.068;14.452;2023-02-15T03:12:54;100842.19;;;3.38;71.18
43115;BME280;28727;50.068;14.452;2023-02-15T03:15:34;100841.69;;;3.31;71.74
43115;BME280;28727;50.068;14.452;2023-02-15T03:18:27;100844.47;;;3.28;71.23
43115;BME280;28727;50.068;14.452;2023-02-15T03:21:00;100839.53;;;3.23;71.66
43115;BME280;28727;50.068;14.452;2023-02-15T03:23:32;100840.25;;;3.25;71.99
43115;BME280;28727;50.068;14.452;2023-02-15T03:26:10;100835.53;;;3.32;71.44
43115;BME280;28727;50.068;14.452;2023-02-15T03:28:42;100830.38;;;3.30;72.01
43115;BME280;28727;50.068;14.452;2023-02-15T03:31:17;100831.06;;;3.34;71.46
43115;BME280;28727;50.068;14.452;2023-02-15T03:33:53;100818.69;;;3.38;71.07
43115;BME280;28727;50.068;14.452;2023-02-15T03:36:39;100826.09;;;3.45;70.67
43115;BME280;28727;50.068;14.452;2023-02-15T03:42:25;100817.22;;;3.48;70.42
43115;BME280;28727;50.068;14.452;2023-02-15T03:45:04;100815.13;;;3.39;70.99
43115;BME280;28727;50.068;14.452;2023-02-15T03:47:39;100821.38;;;3.36;71.38
43115;BME280;28727;50.068;14.452;2023-02-15T03:50:19;100816.31;;;3.33;71.29
43115;BME280;28727;50.068;14.452;2023-02-15T03:53:11;100816.75;;;3.25;70.65
43115;BME280;28727;50.068;14.452;2023-02-15T03:55:48;100810.19;;;3.18;70.68
43115;BME280;28727;50.068;14.452;2023-02-15T03:58:28;100819.97;;;3.15;71.19
43115;BME280;28727;50.068;14.452;2023-02-15T04:04:38;100812.66;;;3.06;71.79
43115;BME280;28727;50.068;14.452;2023-02-15T04:07:13;100817.44;;;2.98;71.32
43115;BME280;28727;50.068;14.452;2023-02-15T04:09:44;100810.47;;;2.82;72.28
43115;BME280;28727;50.068;14.452;2023-02-15T04:12:38;100814.84;;;2.82;72.75
43115;BME280;28727;50.068;14.452;2023-02-15T04:15:11;100816.50;;;2.83;72.27
43115;BME280;28727;50.068;14.452;2023-02-15T04:18:05;100811.47;;;2.80;72.25
43115;BME280;28727;50.068;14.452;2023-02-15T04:20:36;100817.53;;;2.80;72.69
43115;BME280;28727;50.068;14.452;2023-02-15T04:23:30;100816.50;;;2.83;71.95
43115;BME280;28727;50.068;14.452;2023-02-15T04:26:28;100812.25;;;2.82;72.61
43115;BME280;28727;50.068;14.452;2023-02-15T04:28:59;100807.69;;;2.85;72.18
43115;BME280;28727;50.068;14.452;2023-02-15T04:31:33;100805.94;;;2.86;72.17
43115;BME280;28727;50.068;14.452;2023-02-15T04:34:07;100808.69;;;2.83;71.92
43115;BME280;28727;50.068;14.452;2023-02-15T04:36:39;100810.16;;;2.88;72.39
43115;BME280;28727;50.068;14.452;2023-02-15T04:39:13;100810.22;;;2.87;72.29
43115;BME280;28727;50.068;14.452;2023-02-15T04:41:46;100818.19;;;2.84;72.12
43115;BME280;28727;50.068;14.452;2023-02-15T04:44:19;100809.78;;;2.79;72.32
43115;BME280;28727;50.068;14.452;2023-02-15T04:46:51;100814.50;;;2.72;72.16
43115;BME280;28727;50.068;14.452;2023-02-15T04:49:22;100816.44;;;2.69;72.47
43115;BME280;28727;50.068;14.452;2023-02-15T04:51:54;100808.63;;;2.69;71.89
43115;BME280;28727;50.068;14.452;2023-02-15T04:54:25;100801.56;;;2.71;72.28
43115;BME280;28727;50.068;14.452;2023-02-15T04:56:57;100806.00;;;2.69;71.89
43115;BME280;28727;50.068;14.452;2023-02-15T04:59:30;100803.31;;;2.70;72.05
43115;BME280;28727;50.068;14.452;2023-02-15T05:02:01;100801.63;;;2.69;72.09
43115;BME280;28727;50.068;14.452;2023-02-15T05:04:33;100800.00;;;2.67;72.15
43115;BME280;28727;50.068;14.452;2023-02-15T05:07:05;100793.22;;;2.64;72.61
43115;BME280;28727;50.068;14.452;2023-02-15T05:09:39;100804.31;;;2.68;72.67
43115;BME280;28727;50.068;14.452;2023-02-15T05:12:11;100794.97;;;2.64;72.53
43115;BME280;28727;50.068;14.452;2023-02-15T05:14:43;100804.72;;;2.60;73.04
43115;BME280;28727;50.068;14.452;2023-02-15T05:17:14;100801.59;;;2.54;73.16
43115;BME280;28727;50.068;14.452;2023-02-15T05:19:46;100797.91;;;2.58;72.84
43115;BME280;28727;50.068;14.452;2023-02-15T05:22:20;100806.91;;;2.52;72.76
43115;BME280;28727;50.068;14.452;2023-02-15T05:24:52;100799.81;;;2.38;73.26
43115;BME280;28727;50.068;14.452;2023-02-15T05:27:42;100797.88;;;2.42;73.05
43115;BME280;28727;50.068;14.452;2023-02-15T05:30:35;100807.56;;;2.40;73.12
43115;BME280;28727;50.068;14.452;2023-02-15T05:33:14;100803.72;;;2.47;73.40
43115;BME280;28727;50.068;14.452;2023-02-15T05:35:45;100795.38;;;2.56;72.61
43115;BME280;28727;50.068;14.452;2023-02-15T05:38:17;100799.28;;;2.65;72.91
43115;BME280;28727;50.068;14.452;2023-02-15T05:40:50;100796.66;;;2.65;72.05
43115;BME280;28727;50.068;14.452;2023-02-15T05:43:21;100798.94;;;2.71;72.68
43115;BME280;28727;50.068;14.452;2023-02-15T05:45:54;100799.88;;;2.70;72.52
43115;BME280;28727;50.068;14.452;2023-02-15T05:48:29;100805.22;;;2.67;72.30
43115;BME280;28727;50.068;14.452;2023-02-15T05:51:07;100812.03;;;2.54;72.42
43115;BME280;28727;50.068;14.452;2023-02-15T05:53:44;100800.78;;;2.53;72.74
43115;BME280;28727;50.068;14.452;2023-02-15T05:56:20;100811.09;;;2.55;72.62
43115;BME280;28727;50.068;14.452;2023-02-15T05:58:52;100803.47;;;2.52;72.16
43115;BME280;28727;50.068;14.452;2023-02-15T06:01:24;100802.75;;;2.48;72.89
43115;BME280;28727;50.068;14.452;2023-02-15T06:03:56;100810.09;;;2.41;72.98
43115;BME280;28727;50.068;14.452;2023-02-15T06:06:28;100811.22;;;2.36;73.14
43115;BME280;28727;50.068;14.452;2023-02-15T06:08:59;100810.50;;;2.34;72.92
43115;BME280;28727;50.068;14.452;2023-02-15T06:11:31;100814.94;;;2.32;72.94
43115;BME280;28727;50.068;14.452;2023-02-15T06:14:02;100819.31;;;2.31;72.85
43115;BME280;28727;50.068;14.452;2023-02-15T06:16:37;100820.66;;;2.23;73.51
43115;BME280;28727;50.068;14.452;2023-02-15T06:19:09;100833.22;;;2.15;73.06
43115;BME280;28727;50.068;14.452;2023-02-15T06:21:42;100835.16;;;2.11;73.46
43115;BME280;28727;50.068;14.452;2023-02-15T06:24:14;100834.63;;;2.04;73.89
43115;BME280;28727;50.068;14.452;2023-02-15T06:26:46;100839.13;;;2.01;73.64
43115;BME280;28727;50.068;14.452;2023-02-15T06:29:17;100836.75;;;1.96;73.85
43115;BME280;28727;50.068;14.452;2023-02-15T06:31:50;100844.13;;;1.88;73.57
43115;BME280;28727;50.068;14.452;2023-02-15T06:34:22;100846.28;;;1.80;74.26
43115;BME280;28727;50.068;14.452;2023-02-15T06:36:54;100852.94;;;1.86;74.65
43115;BME280;28727;50.068;14.452;2023-02-15T06:39:25;100847.50;;;1.90;74.82
43115;BME280;28727;50.068;14.452;2023-02-15T06:41:59;100847.78;;;2.01;74.32
43115;BME280;28727;50.068;14.452;2023-02-15T06:44:31;100851.69;;;2.10;74.37
43115;BME280;28727;50.068;14.452;2023-02-15T06:47:05;100849.41;;;2.04;73.40
43115;BME280;28727;50.068;14.452;2023-02-15T06:49:37;100851.25;;;2.02;73.65
43115;BME280;28727;50.068;14.452;2023-02-15T06:52:09;100849.84;;;1.95;74.73
43115;BME280;28727;50.068;14.452;2023-02-15T06:54:43;100859.22;;;1.99;74.13
43115;BME280;28727;50.068;14.452;2023-02-15T06:57:18;100862.50;;;2.02;74.10
43115;BME280;28727;50.068;14.452;2023-02-15T06:59:49;100867.28;;;1.94;74.06
43115;BME280;28727;50.068;14.452;2023-02-15T07:02:21;100873.00;;;1.84;74.13
43115;BME280;28727;50.068;14.452;2023-02-15T07:05:05;100864.56;;;1.79;74.89
43115;BME280;28727;50.068;14.452;2023-02-15T07:07:36;100863.59;;;1.81;74.50
43115;BME280;28727;50.068;14.452;2023-02-15T07:10:08;100865.78;;;1.89;75.10
43115;BME280;28727;50.068;14.452;2023-02-15T07:12:40;100862.88;;;1.95;75.00
43115;BME280;28727;50.068;14.452;2023-02-15T07:15:16;100858.06;;;2.04;74.26
43115;BME280;28727;50.068;14.452;2023-02-15T07:17:52;100860.06;;;2.17;74.54
43115;BME280;28727;50.068;14.452;2023-02-15T07:20:24;100854.75;;;2.18;73.49
43115;BME280;28727;50.068;14.452;2023-02-15T07:22:55;100852.31;;;2.15;73.78
43115;BME280;28727;50.068;14.452;2023-02-15T07:25:27;100845.97;;;2.03;73.98
43115;BME280;28727;50.068;14.452;2023-02-15T07:27:59;100849.19;;;1.91;73.85
43115;BME280;28727;50.068;14.452;2023-02-15T07:30:33;100843.19;;;1.89;73.48
43115;BME280;28727;50.068;14.452;2023-02-15T07:33:05;100844.75;;;1.76;73.78
43115;BME280;28727;50.068;14.452;2023-02-15T07:35:56;100845.13;;;1.69;73.98
43115;BME280;28727;50.068;14.452;2023-02-15T07:38:33;100840.88;;;1.66;74.19
43115;BME280;28727;50.068;14.452;2023-02-15T07:41:12;100831.50;;;1.63;74.56
43115;BME280;28727;50.068;14.452;2023-02-15T07:44:02;100822.13;;;1.59;75.11
43115;BME280;28727;50.068;14.452;2023-02-15T07:46:34;100820.28;;;1.61;75.56
43115;BME280;28727;50.068;14.452;2023-02-15T07:49:05;100813.03;;;1.68;75.75
43115;BME280;28727;50.068;14.452;2023-02-15T07:51:37;100810.66;;;1.81;75.52
43115;BME280;28727;50.068;14.452;2023-02-15T07:54:09;100808.16;;;1.95;75.75
43115;BME280;28727;50.068;14.452;2023-02-15T07:56:40;100800.66;;;2.06;74.79
43115;BME280;28727;50.068;14.452;2023-02-15T07:59:13;100797.97;;;2.08;74.80
43115;BME280;28727;50.068;14.452;2023-02-15T08:01:45;100804.56;;;2.15;74.28
43115;BME280;28727;50.068;14.452;2023-02-15T08:04:16;100808.91;;;2.14;73.48
43115;BME280;28727;50.068;14.452;2023-02-15T08:06:53;100817.84;;;1.93;74.05
43115;BME280;28727;50.068;14.452;2023-02-15T08:09:26;100828.72;;;1.84;74.38
43115;BME280;28727;50.068;14.452;2023-02-15T08:11:57;100811.03;;;1.73;74.66
43115;BME280;28727;50.068;14.452;2023-02-15T08:14:29;100813.63;;;1.73;74.52
43115;BME280;28727;50.068;14.452;2023-02-15T08:17:00;100812.47;;;1.61;74.31
43115;BME280;28727;50.068;14.452;2023-02-15T08:19:36;100809.34;;;1.55;74.75
43115;BME280;28727;50.068;14.452;2023-02-15T08:22:11;100802.44;;;1.54;74.59
43115;BME280;28727;50.068;14.452;2023-02-15T08:24:43;100806.97;;;1.50;75.17
43115;BME280;28727;50.068;14.452;2023-02-15T08:27:15;100805.97;;;1.53;75.19
43115;BME280;28727;50.068;14.452;2023-02-15T08:29:47;100807.75;;;1.52;75.00
43115;BME280;28727;50.068;14.452;2023-02-15T08:32:18;100807.88;;;1.49;75.39
43115;BME280;28727;50.068;14.452;2023-02-15T08:34:50;100809.88;;;1.44;75.36
43115;BME280;28727;50.068;14.452;2023-02-15T08:37:21;100809.69;;;1.47;75.38
43115;BME280;28727;50.068;14.452;2023-02-15T08:39:53;100812.53;;;1.43;75.35
43115;BME280;28727;50.068;14.452;2023-02-15T08:42:25;100805.56;;;1.43;76.00
43115;BME280;28727;50.068;14.452;2023-02-15T08:44:56;100808.03;;;1.46;75.74
43115;BME280;28727;50.068;14.452;2023-02-15T08:47:28;100805.75;;;1.57;75.50
43115;BME280;28727;50.068;14.452;2023-02-15T08:49:59;100799.53;;;1.60;75.29
43115;BME280;28727;50.068;14.452;2023-02-15T08:52:31;100805.50;;;1.62;75.36
43115;BME280;28727;50.068;14.452;2023-02-15T08:55:04;100794.88;;;1.67;75.30
43115;BME280;28727;50.068;14.452;2023-02-15T08:57:36;100787.44;;;1.76;75.14
43115;BME280;28727;50.068;14.452;2023-02-15T09:00:08;100787.94;;;1.83;74.97
43115;BME280;28727;50.068;14.452;2023-02-15T09:02:40;100785.97;;;1.88;74.45
43115;BME280;28727;50.068;14.452;2023-02-15T09:05:12;100791.09;;;1.89;74.28
43115;BME280;28727;50.068;14.452;2023-02-15T09:07:43;100787.50;;;1.92;74.19
43115;BME280;28727;50.068;14.452;2023-02-15T09:10:15;100793.69;;;1.89;73.91
43115;BME280;28727;50.068;14.452;2023-02-15T09:12:46;100795.25;;;1.93;74.49
43115;BME280;28727;50.068;14.452;2023-02-15T09:15:18;100794.63;;;1.88;73.88
43115;BME280;28727;50.068;14.452;2023-02-15T09:17:50;100794.84;;;1.84;74.07
43115;BME280;28727;50.068;14.452;2023-02-15T09:20:21;100802.78;;;1.82;73.85
43115;BME280;28727;50.068;14.452;2023-02-15T09:22:54;100796.53;;;1.85;74.31
43115;BME280;28727;50.068;14.452;2023-02-15T09:25:29;100797.31;;;1.87;74.61
43115;BME280;28727;50.068;14.452;2023-02-15T09:28:00;100794.78;;;1.85;74.19
43115;BME280;28727;50.068;14.452;2023-02-15T09:30:33;100790.47;;;1.84;74.08
43115;BME280;28727;50.068;14.452;2023-02-15T09:33:04;100791.56;;;1.80;74.54
43115;BME280;28727;50.068;14.452;2023-02-15T09:35:36;100792.94;;;1.87;74.07
43115;BME280;28727;50.068;14.452;2023-02-15T09:38:07;100789.50;;;1.87;73.98
43115;BME280;28727;50.068;14.452;2023-02-15T09:40:48;100783.38;;;1.88;74.17
43115;BME280;28727;50.068;14.452;2023-02-15T09:43:27;100784.56;;;1.98;73.83
43115;BME280;28727;50.068;14.452;2023-02-15T09:56:53;100783.09;;;2.74;73.10
43115;BME280;28727;50.068;14.452;2023-02-15T10:02:15;100773.16;;;2.96;70.65
43115;BME280;28727;50.068;14.452;2023-02-15T10:05:08;100774.00;;;2.97;70.35
43115;BME280;28727;50.068;14.452;2023-02-15T10:13:35;100784.44;;;2.97;69.49
43115;BME280;28727;50.068;14.452;2023-02-15T10:18:20;100778.56;;;2.77;70.09
43115;BME280;28727;50.068;14.452;2023-02-15T10:26:11;100771.06;;;3.03;69.90
43115;BME280;28727;50.068;14.452;2023-02-15T10:28:48;100772.06;;;3.16;70.37
43115;BME280;28727;50.068;14.452;2023-02-15T10:37:04;100767.91;;;3.27;68.33
43115;BME280;28727;50.068;14.452;2023-02-15T10:47:45;100758.94;;;3.17;68.38
43115;BME280;28727;50.068;14.452;2023-02-15T10:50:36;100753.09;;;3.12;68.23
43115;BME280;28727;50.068;14.452;2023-02-15T10:53:20;100750.88;;;3.06;68.87
43115;BME280;28727;50.068;14.452;2023-02-15T11:06:31;100727.72;;;3.00;69.39
43115;BME280;28727;50.068;14.452;2023-02-15T11:09:05;100730.00;;;3.06;69.64
43115;BME280;28727;50.068;14.452;2023-02-15T11:11:40;100724.88;;;3.19;70.11
43115;BME280;28727;50.068;14.452;2023-02-15T11:17:02;100723.44;;;3.29;68.43
43115;BME280;28727;50.068;14.452;2023-02-15T11:19:37;100717.19;;;3.32;68.50
43115;BME280;28727;50.068;14.452;2023-02-15T11:22:11;100721.47;;;3.33;68.38
43115;BME280;28727;50.068;14.452;2023-02-15T11:24:47;100720.06;;;3.27;68.64
43115;BME280;28727;50.068;14.452;2023-02-15T11:27:20;100718.47;;;3.24;68.16
43115;BME280;28727;50.068;14.452;2023-02-15T11:32:32;100717.41;;;3.13;68.69
43115;BME280;28727;50.068;14.452;2023-02-15T11:37:40;100706.78;;;2.86;69.61
43115;BME280;28727;50.068;14.452;2023-02-15T11:43:03;100706.25;;;3.25;69.55
43115;BME280;28727;50.068;14.452;2023-02-15T11:45:36;100702.28;;;3.48;69.30
43115;BME280;28727;50.068;14.452;2023-02-15T11:48:12;100694.84;;;3.56;68.63
43115;BME280;28727;50.068;14.452;2023-02-15T11:50:44;100691.59;;;3.66;68.74
43115;BME280;28727;50.068;14.452;2023-02-15T11:53:20;100689.28;;;3.76;67.35
43115;BME280;28727;50.068;14.452;2023-02-15T11:56:01;100682.56;;;3.86;66.98
43115;BME280;28727;50.068;14.452;2023-02-15T12:01:15;100677.13;;;4.18;67.42
43115;BME280;28727;50.068;14.452;2023-02-15T12:03:51;100675.91;;;4.23;67.24
43115;BME280;28727;50.068;14.452;2023-02-15T12:06:25;100683.91;;;4.34;66.89
43115;BME280;28727;50.068;14.452;2023-02-15T12:11:30;100669.03;;;3.94;66.46
43115;BME280;28727;50.068;14.452;2023-02-15T12:14:05;100661.94;;;3.82;66.64
43115;BME280;28727;50.068;14.452;2023-02-15T12:21:51;100660.53;;;3.90;66.44
43115;BME280;28727;50.068;14.452;2023-02-15T12:27:02;100652.13;;;3.99;66.30
43115;BME280;28727;50.068;14.452;2023-02-15T12:29:39;100652.78;;;3.89;66.35
43115;BME280;28727;50.068;14.452;2023-02-15T12:32:11;100643.91;;;3.77;66.77
43115;BME280;28727;50.068;14.452;2023-02-15T12:34:47;100646.44;;;3.79;67.30
43115;BME280;28727;50.068;14.452;2023-02-15T12:37:21;100644.75;;;3.78;66.85
43115;BME280;28727;50.068;14.452;2023-02-15T12:40:40;100640.00;;;3.84;66.80
43115;BME280;28727;50.068;14.452;2023-02-15T12:42:46;100636.63;;;3.96;66.62
43115;BME280;28727;50.068;14.452;2023-02-15T12:50:43;100617.31;;;3.99;66.27
43115;BME280;28727;50.068;14.452;2023-02-15T12:53:20;100625.41;;;4.08;66.51
43115;BME280;28727;50.068;14.452;2023-02-15T12:55:58;100616.88;;;4.19;66.22
43115;BME280;28727;50.068;14.452;2023-02-15T12:58:30;100613.03;;;4.25;66.57
43115;BME280;28727;50.068;14.452;2023-02-15T13:04:27;100620.00;;;4.38;65.90
43115;BME280;28727;50.068;14.452;2023-02-15T13:06:34;100613.78;;;4.27;65.95
43115;BME280;28727;50.068;14.452;2023-02-15T13:11:43;100613.72;;;4.14;66.29
43115;BME280;28727;50.068;14.452;2023-02-15T13:14:19;100607.94;;;4.09;66.56
43115;BME280;28727;50.068;14.452;2023-02-15T13:16:53;100600.47;;;4.17;66.27
43115;BME280;28727;50.068;14.452;2023-02-15T13:22:08;100596.25;;;4.15;66.25
43115;BME280;28727;50.068;14.452;2023-02-15T13:24:48;100604.09;;;4.15;65.75
43115;BME280;28727;50.068;14.452;2023-02-15T13:27:23;100597.72;;;4.19;66.19
43115;BME280;28727;50.068;14.452;2023-02-15T13:29:56;100604.63;;;4.34;65.93
43115;BME280;28727;50.068;14.452;2023-02-15T13:32:30;100597.25;;;4.26;65.21
43115;BME280;28727;50.068;14.452;2023-02-15T13:35:04;100601.69;;;4.11;65.75
43115;BME280;28727;50.068;14.452;2023-02-15T13:40:31;100587.19;;;4.20;66.24
43115;BME280;28727;50.068;14.452;2023-02-15T13:43:10;100592.69;;;4.30;65.71
43115;BME280;28727;50.068;14.452;2023-02-15T13:59:02;100582.84;;;4.33;65.62
43115;BME280;28727;50.068;14.452;2023-02-15T14:01:42;100577.72;;;4.32;65.45
43115;BME280;28727;50.068;14.452;2023-02-15T14:09:47;100574.88;;;4.08;66.28
43115;BME280;28727;50.068;14.452;2023-02-15T14:12:46;100576.63;;;4.22;66.22
43115;BME280;28727;50.068;14.452;2023-02-15T14:18:07;100580.31;;;4.32;65.69
43115;BME280;28727;50.068;14.452;2023-02-15T14:28:22;100575.16;;;4.18;65.78
43115;BME280;28727;50.068;14.452;2023-02-15T14:30:59;100563.16;;;4.28;65.79
43115;BME280;28727;50.068;14.452;2023-02-15T14:33:39;100565.69;;;4.29;65.81
43115;BME280;28727;50.068;14.452;2023-02-15T14:36:15;100555.75;;;4.34;65.65
43115;BME280;28727;50.068;14.452;2023-02-15T14:39:11;100564.13;;;4.39;65.94
43115;BME280;28727;50.068;14.452;2023-02-15T14:42:18;100562.69;;;4.48;64.80
43115;BME280;28727;50.068;14.452;2023-02-15T14:45:17;100546.31;;;4.59;64.92
43115;BME280;28727;50.068;14.452;2023-02-15T14:47:51;100550.28;;;4.64;64.37
43115;BME280;28727;50.068;14.452;2023-02-15T14:55:52;100538.59;;;4.82;63.90
43115;BME280;28727;50.068;14.452;2023-02-15T14:58:57;100544.03;;;4.92;63.66
43115;BME280;28727;50.068;14.452;2023-02-15T15:01:28;100541.63;;;5.02;62.99
43115;BME280;28727;50.068;14.452;2023-02-15T15:04:02;100542.38;;;5.04;62.68
43115;BME280;28727;50.068;14.452;2023-02-15T15:06:37;100543.41;;;5.01;62.53
43115;BME280;28727;50.068;14.452;2023-02-15T15:11:42;100548.56;;;5.03;62.75
43115;BME280;28727;50.068;14.452;2023-02-15T15:17:05;100543.94;;;4.93;62.53
43115;BME280;28727;50.068;14.452;2023-02-15T15:22:23;100547.28;;;4.83;63.05
43115;BME280;28727;50.068;14.452;2023-02-15T15:24:56;100543.00;;;4.82;63.15
43115;BME280;28727;50.068;14.452;2023-02-15T15:33:13;100529.78;;;4.71;63.81
43115;BME280;28727;50.068;14.452;2023-02-15T15:49:24;100520.91;;;4.34;64.25
43115;BME280;28727;50.068;14.452;2023-02-15T15:52:01;100524.38;;;4.34;64.74
43115;BME280;28727;50.068;14.452;2023-02-15T15:54:33;100526.25;;;4.32;64.10
43115;BME280;28727;50.068;14.452;2023-02-15T15:57:04;100525.78;;;4.26;64.58
43115;BME280;28727;50.068;14.452;2023-02-15T15:59:38;100526.72;;;4.25;64.55
43115;BME280;28727;50.068;14.452;2023-02-15T16:02:15;100524.31;;;4.22;64.50
43115;BME280;28727;50.068;14.452;2023-02-15T16:04:50;100520.03;;;4.21;64.73
43115;BME280;28727;50.068;14.452;2023-02-15T16:07:25;100523.88;;;4.15;65.14
43115;BME280;28727;50.068;14.452;2023-02-15T16:12:33;100521.13;;;4.04;65.34
43115;BME280;28727;50.068;14.452;2023-02-15T16:15:15;100522.28;;;4.00;65.05
43115;BME280;28727;50.068;14.452;2023-02-15T16:17:49;100525.81;;;3.99;65.57
43115;BME280;28727;50.068;14.452;2023-02-15T16:20:28;100520.59;;;3.99;65.71
43115;BME280;28727;50.068;14.452;2023-02-15T16:25:46;100529.13;;;3.74;66.08
43115;BME280;28727;50.068;14.452;2023-02-15T16:28:21;100530.19;;;3.57;66.76
43115;BME280;28727;50.068;14.452;2023-02-15T16:31:12;100527.28;;;3.48;66.40
43115;BME280;28727;50.068;14.452;2023-02-15T16:33:44;100526.28;;;3.36;67.36
43115;BME280;28727;50.068;14.452;2023-02-15T16:36:25;100532.16;;;3.25;68.44
43115;BME280;28727;50.068;14.452;2023-02-15T16:41:28;100535.25;;;3.18;67.77